createdAt,value
2018-08-13T00:02:20.353Z,39.71
2018-08-13T00:04:51.808Z,39.92
2018-08-13T00:07:23.205Z,39.96
2018-08-13T00:09:54.701Z,39.90
2018-08-13T00:12:26.313Z,39.81
2018-08-13T00:14:57.783Z,39.42
2018-08-13T00:17:29.363Z,39.40
2018-08-13T00:20:07.863Z,39.41
2018-08-13T00:22:39.395Z,40.08
2018-08-13T00:25:10.906Z,39.79
2018-08-13T00:27:41.663Z,39.92
2018-08-13T00:30:13.006Z,39.66
2018-08-13T00:32:44.616Z,40.08
2018-08-13T00:35:16.207Z,39.16
2018-08-13T00:37:47.679Z,39.83
2018-08-13T00:40:19.200Z,39.75
2018-08-13T00:42:50.731Z,40.03
2018-08-13T00:45:22.314Z,39.43
2018-08-13T00:47:53.807Z,40.28
2018-08-13T00:50:25.431Z,40.15
2018-08-13T00:52:56.765Z,40.13
2018-08-13T00:55:28.334Z,39.57
2018-08-13T00:57:59.845Z,39.05
2018-08-13T01:00:31.530Z,39.98
2018-08-13T01:03:03.196Z,40.11
2018-08-13T01:05:34.766Z,40.09
2018-08-13T01:08:06.325Z,39.95
2018-08-13T01:10:37.791Z,40.04
2018-08-13T01:13:09.788Z,40.37
2018-08-13T01:15:41.350Z,39.68
2018-08-13T01:18:12.786Z,40.82
2018-08-13T01:20:44.210Z,40.66
2018-08-13T01:23:15.765Z,40.58
2018-08-13T01:25:47.260Z,40.23
2018-08-13T01:28:19.199Z,40.52
2018-08-13T01:30:50.758Z,40.24
2018-08-13T01:33:22.319Z,40.79
2018-08-13T01:35:53.824Z,40.91
2018-08-13T01:38:25.302Z,40.52
2018-08-13T01:40:56.740Z,41.14
2018-08-13T01:43:28.404Z,41.00
2018-08-13T01:45:59.791Z,40.79
2018-08-13T01:48:31.300Z,41.03
2018-08-13T01:51:02.764Z,40.73
2018-08-13T01:53:34.309Z,40.74
2018-08-13T01:56:05.753Z,40.78
2018-08-13T01:58:37.333Z,40.76
2018-08-13T02:01:08.746Z,41.15
2018-08-13T02:03:40.789Z,41.13
2018-08-13T02:06:12.273Z,40.30
2018-08-13T02:08:44.123Z,40.64
2018-08-13T02:11:15.673Z,41.05
2018-08-13T02:13:47.229Z,41.14
2018-08-13T02:16:18.734Z,41.18
2018-08-13T02:18:50.296Z,41.01
2018-08-13T02:21:21.831Z,41.21
2018-08-13T02:23:53.301Z,41.12
2018-08-13T02:26:24.802Z,41.22
2018-08-13T02:28:56.018Z,40.85
2018-08-13T02:31:27.976Z,41.61
2018-08-13T02:33:59.669Z,40.92
2018-08-13T02:36:31.433Z,40.63
2018-08-13T02:39:02.991Z,41.45
2018-08-13T02:41:34.521Z,41.09
2018-08-13T02:44:06.009Z,41.08
2018-08-13T02:46:37.670Z,41.37
2018-08-13T02:49:09.195Z,41.42
2018-08-13T02:51:40.747Z,41.47
2018-08-13T02:54:12.398Z,41.15
2018-08-13T02:56:43.877Z,41.37
2018-08-13T02:59:15.428Z,41.44
2018-08-13T03:01:46.895Z,41.18
2018-08-13T03:04:17.535Z,41.31
2018-08-13T03:06:48.909Z,41.21
2018-08-13T03:09:19.582Z,41.33
2018-08-13T03:11:51.215Z,41.39
2018-08-13T03:14:22.710Z,41.16
2018-08-13T03:16:54.439Z,41.26
2018-08-13T03:19:26.189Z,41.30
2018-08-13T03:21:57.733Z,41.02
2018-08-13T03:24:29.305Z,41.29
2018-08-13T03:27:00.835Z,41.69
2018-08-13T03:29:32.665Z,41.10
2018-08-13T03:32:03.899Z,40.81
2018-08-13T03:34:35.363Z,41.25
2018-08-13T03:37:07.208Z,41.77
2018-08-13T03:39:38.739Z,41.73
2018-08-13T03:42:10.532Z,41.29
2018-08-13T03:44:41.575Z,41.50
2018-08-13T03:47:13.045Z,41.68
2018-08-13T03:49:44.725Z,41.77
2018-08-13T03:52:16.412Z,41.37
2018-08-13T03:54:47.854Z,42.05
2018-08-13T03:57:19.396Z,41.58
2018-08-13T03:59:50.878Z,41.59
2018-08-13T04:02:22.385Z,41.02
2018-08-13T04:04:53.828Z,41.60
2018-08-13T04:07:25.388Z,41.71
2018-08-13T04:09:56.794Z,41.87
2018-08-13T04:12:28.311Z,41.94
2018-08-13T04:14:59.748Z,41.54
2018-08-13T04:17:31.196Z,41.63
2018-08-13T04:20:02.693Z,42.67
2018-08-13T04:22:34.018Z,41.54
2018-08-13T04:25:06.968Z,41.30
2018-08-13T04:27:37.617Z,40.70
2018-08-13T04:30:14.329Z,39.79
2018-08-13T04:32:46.922Z,40.49
2018-08-13T04:35:18.398Z,39.98
2018-08-13T04:37:49.971Z,40.58
2018-08-13T04:40:20.624Z,40.12
2018-08-13T04:42:51.991Z,39.90
2018-08-13T04:45:23.642Z,39.87
2018-08-13T04:47:56.220Z,40.18
2018-08-13T04:50:27.698Z,40.28
2018-08-13T04:52:59.071Z,39.73
2018-08-13T04:55:30.627Z,40.93
2018-08-13T04:58:02.196Z,40.21
2018-08-13T05:00:33.736Z,40.49
2018-08-13T05:03:05.230Z,39.76
2018-08-13T05:05:36.696Z,40.73
2018-08-13T05:08:08.221Z,40.12
2018-08-13T05:10:39.716Z,40.74
2018-08-13T05:13:11.309Z,40.21
2018-08-13T05:15:43.187Z,40.59
2018-08-13T05:18:14.647Z,40.56
2018-08-13T05:20:45.990Z,40.04
2018-08-13T05:23:17.491Z,40.69
2018-08-13T05:25:48.895Z,40.47
2018-08-13T05:28:20.483Z,40.89
2018-08-13T05:30:51.968Z,40.53
2018-08-13T05:33:23.375Z,40.11
2018-08-13T05:35:54.912Z,40.44
2018-08-13T05:38:25.532Z,40.00
2018-08-13T05:40:56.903Z,40.42
2018-08-13T05:43:28.405Z,40.72
2018-08-13T05:45:59.764Z,40.55
2018-08-13T05:48:31.439Z,40.68
2018-08-13T05:51:03.000Z,40.49
2018-08-13T05:53:34.609Z,40.47
2018-08-13T05:56:06.393Z,40.70
2018-08-13T05:58:37.869Z,39.66
2018-08-13T06:01:09.866Z,40.10
2018-08-13T06:03:41.677Z,40.59
2018-08-13T06:06:13.206Z,40.31
2018-08-13T06:08:44.738Z,39.89
2018-08-13T06:11:16.351Z,40.35
2018-08-13T06:13:47.845Z,40.01
2018-08-13T06:16:19.403Z,39.76
2018-08-13T06:18:50.743Z,40.28
2018-08-13T06:21:22.228Z,39.92
2018-08-13T06:23:53.690Z,39.54
2018-08-13T06:26:25.198Z,39.83
2018-08-13T06:28:56.628Z,39.94
2018-08-13T06:31:28.218Z,39.61
2018-08-13T06:33:59.738Z,39.81
2018-08-13T06:36:31.244Z,39.84
2018-08-13T06:39:02.864Z,39.74
2018-08-13T06:41:34.423Z,39.18
2018-08-13T06:44:07.226Z,39.91
2018-08-13T06:46:39.207Z,39.07
2018-08-13T06:49:10.806Z,39.40
2018-08-13T06:51:41.846Z,39.74
2018-08-13T06:54:12.861Z,39.30
2018-08-13T06:56:44.379Z,39.71
2018-08-13T06:59:15.797Z,39.50
2018-08-13T07:01:46.881Z,39.27
2018-08-13T07:04:18.228Z,39.67
2018-08-13T07:06:49.702Z,39.67
2018-08-13T07:12:06.808Z,39.68
2018-08-13T07:14:37.727Z,39.42
2018-08-13T07:17:08.783Z,39.50
2018-08-13T07:19:39.868Z,39.49
2018-08-13T07:22:10.853Z,39.40
2018-08-13T07:24:41.783Z,39.82
2018-08-13T07:27:13.310Z,39.71
2018-08-13T07:29:44.776Z,39.38
2018-08-13T07:32:16.315Z,39.72
2018-08-13T07:34:47.793Z,39.18
2018-08-13T07:37:18.990Z,39.79
2018-08-13T07:39:50.495Z,39.37
2018-08-13T07:42:21.873Z,39.79
2018-08-13T07:44:53.223Z,40.04
2018-08-13T07:47:24.726Z,39.79
2018-08-13T07:49:56.426Z,39.97
2018-08-13T07:52:27.812Z,40.02
2018-08-13T07:54:59.445Z,39.98
2018-08-13T07:57:30.870Z,39.99
2018-08-13T08:00:02.424Z,40.26
2018-08-13T08:02:33.748Z,40.20
2018-08-13T08:05:06.209Z,39.97
2018-08-13T08:07:37.776Z,39.95
2018-08-13T08:10:14.704Z,40.09
2018-08-13T08:12:46.205Z,40.25
2018-08-13T08:15:20.219Z,40.41
2018-08-13T08:17:51.588Z,40.07
2018-08-13T08:20:22.898Z,40.09
2018-08-13T08:22:54.395Z,40.55
2018-08-13T08:25:25.781Z,40.45
2018-08-13T08:27:57.316Z,40.24
2018-08-13T08:30:28.769Z,40.45
2018-08-13T08:33:00.237Z,40.33
2018-08-13T08:35:31.660Z,40.45
2018-08-13T08:38:03.209Z,40.24
2018-08-13T08:40:34.728Z,40.12
2018-08-13T08:43:06.616Z,40.41
2018-08-13T08:45:38.188Z,40.16
2018-08-13T08:48:11.309Z,40.22
2018-08-13T08:50:42.749Z,40.55
2018-08-13T08:53:14.211Z,40.25
2018-08-13T08:55:45.671Z,39.95
2018-08-13T08:58:17.263Z,40.06
2018-08-13T09:00:48.856Z,39.92
2018-08-13T09:03:20.274Z,40.20
2018-08-13T09:05:51.703Z,40.39
2018-08-13T09:08:22.901Z,40.22
2018-08-13T09:10:53.538Z,39.89
2018-08-13T09:13:24.887Z,39.89
2018-08-13T09:15:55.525Z,40.20
2018-08-13T09:18:49.754Z,40.58
2018-08-13T09:21:33.548Z,40.06
2018-08-13T09:24:27.795Z,40.39
2018-08-13T09:27:21.823Z,40.26
2018-08-13T09:30:15.804Z,40.25
2018-08-13T09:33:09.766Z,40.22
2018-08-13T09:35:40.671Z,40.35
2018-08-13T09:38:11.738Z,39.94
2018-08-13T09:40:42.814Z,40.15
2018-08-13T09:43:13.859Z,40.23
2018-08-13T09:45:44.904Z,40.03
2018-08-13T09:48:15.382Z,40.19
2018-08-13T09:50:46.621Z,40.57
2018-08-13T09:53:17.667Z,40.57
2018-08-13T09:55:48.744Z,40.20
2018-08-13T09:58:19.608Z,40.49
2018-08-13T10:00:55.692Z,39.99
2018-08-13T10:03:26.777Z,40.17
2018-08-13T10:05:57.839Z,40.24
2018-08-13T10:08:28.776Z,40.47
2018-08-13T10:10:59.939Z,40.23
2018-08-13T10:13:30.460Z,40.46
2018-08-13T10:16:02.222Z,40.50
2018-08-13T10:18:33.498Z,39.91
2018-08-13T10:21:04.698Z,40.41
2018-08-13T10:23:35.844Z,40.17
2018-08-13T10:26:06.868Z,40.43
2018-08-13T10:28:37.800Z,40.05
2018-08-13T10:31:08.801Z,40.24
2018-08-13T10:33:39.809Z,40.15
2018-08-13T10:36:11.325Z,40.17
2018-08-13T10:38:42.543Z,40.33
2018-08-13T10:41:13.751Z,39.84
2018-08-13T10:43:44.794Z,40.00
2018-08-13T10:46:15.993Z,40.00
2018-08-13T10:48:47.072Z,39.99
2018-08-13T10:51:18.347Z,39.83
2018-08-13T10:53:49.588Z,39.87
2018-08-13T10:56:20.616Z,40.25
2018-08-13T10:58:51.693Z,39.79
2018-08-13T11:01:22.989Z,40.26
2018-08-13T11:03:54.748Z,40.18
2018-08-13T11:06:26.554Z,39.99
2018-08-13T11:08:57.886Z,40.07
2018-08-13T11:11:29.390Z,39.72
2018-08-13T11:14:00.739Z,40.02
2018-08-13T11:16:32.197Z,39.86
2018-08-13T11:19:03.752Z,39.65
2018-08-13T11:21:34.912Z,39.74
2018-08-13T11:24:05.375Z,40.03
2018-08-13T11:26:36.821Z,39.64
2018-08-13T11:29:08.189Z,39.78
2018-08-13T11:31:39.714Z,39.74
2018-08-13T11:34:11.217Z,39.81
2018-08-13T11:36:42.707Z,39.53
2018-08-13T11:39:14.451Z,39.74
2018-08-13T11:41:45.728Z,39.46
2018-08-13T11:44:17.215Z,39.62
2018-08-13T11:46:48.716Z,39.87
2018-08-13T11:49:20.619Z,39.63
2018-08-13T11:51:52.215Z,39.55
2018-08-13T11:54:23.725Z,39.64
2018-08-13T11:56:55.316Z,39.65
2018-08-13T11:59:26.756Z,39.35
2018-08-13T12:01:58.271Z,39.60
2018-08-13T12:04:29.732Z,39.37
2018-08-13T12:07:01.210Z,39.64
2018-08-13T12:09:32.722Z,39.97
2018-08-13T12:12:03.992Z,39.62
2018-08-13T12:14:35.344Z,39.82
2018-08-13T12:17:06.797Z,39.83
2018-08-13T12:19:37.818Z,39.53
2018-08-13T12:22:09.239Z,39.77
2018-08-13T12:24:40.699Z,39.76
2018-08-13T12:27:12.490Z,39.63
2018-08-13T12:29:44.584Z,39.19
2018-08-13T12:32:16.316Z,39.48
2018-08-13T12:34:47.749Z,39.11
2018-08-13T12:37:18.901Z,39.63
2018-08-13T12:39:50.008Z,39.13
2018-08-13T12:42:21.340Z,39.41
2018-08-13T12:44:52.762Z,39.55
2018-08-13T12:47:24.400Z,39.40
2018-08-13T12:49:55.897Z,39.38
2018-08-13T12:52:26.574Z,39.65
2018-08-13T12:54:57.901Z,39.53
2018-08-13T12:57:29.498Z,39.60
2018-08-13T13:00:00.896Z,39.18
2018-08-13T13:02:32.336Z,39.21
2018-08-13T13:05:03.789Z,39.70
2018-08-13T13:07:35.632Z,39.42
2018-08-13T13:10:10.475Z,39.21
2018-08-13T13:12:42.613Z,39.42
2018-08-13T13:15:18.852Z,39.19
2018-08-13T13:17:50.399Z,39.68
2018-08-13T13:20:24.662Z,39.39
2018-08-13T13:22:56.218Z,39.49
2018-08-13T13:25:28.682Z,39.71
2018-08-13T13:28:00.203Z,39.27
2018-08-13T13:30:31.698Z,39.20
2018-08-13T13:33:02.976Z,39.28
2018-08-13T13:35:33.600Z,39.14
2018-08-13T13:38:05.005Z,39.21
2018-08-13T13:40:37.421Z,39.77
2018-08-13T13:43:09.206Z,39.79
2018-08-13T13:45:40.737Z,39.85
2018-08-13T13:48:12.422Z,39.65
2018-08-13T13:50:43.759Z,39.76
2018-08-13T13:53:15.238Z,39.63
2018-08-13T13:55:46.721Z,39.44
2018-08-13T13:58:18.334Z,39.73
2018-08-13T14:00:49.865Z,39.88
2018-08-13T14:03:21.557Z,39.94
2018-08-13T14:05:53.072Z,39.97
2018-08-13T14:08:24.689Z,39.97
2018-08-13T14:10:56.237Z,39.61
2018-08-13T14:13:27.781Z,39.79
2018-08-13T14:15:59.197Z,39.91
2018-08-13T14:18:30.754Z,39.92
2018-08-13T14:21:02.221Z,39.70
2018-08-13T14:23:34.236Z,39.43
2018-08-13T14:26:05.747Z,39.47
2018-08-13T14:28:37.453Z,39.29
2018-08-13T14:31:09.017Z,39.34
2018-08-13T14:33:40.422Z,38.57
2018-08-13T14:36:11.832Z,38.84
2018-08-13T14:38:43.383Z,38.91
2018-08-13T14:41:14.757Z,39.39
2018-08-13T14:43:46.317Z,38.89
2018-08-13T14:46:17.858Z,38.86
2018-08-13T14:48:49.427Z,39.16
2018-08-13T14:51:20.877Z,39.42
2018-08-13T14:53:52.348Z,39.31
2018-08-13T14:56:23.748Z,38.91
2018-08-13T14:58:54.762Z,38.76
2018-08-13T15:01:26.223Z,38.68
2018-08-13T15:03:57.662Z,38.76
2018-08-13T15:06:28.920Z,39.30
2018-08-13T15:08:59.490Z,39.15
2018-08-13T15:11:36.928Z,39.27
2018-08-13T15:14:07.779Z,38.42
2018-08-13T15:16:39.606Z,38.66
2018-08-13T15:19:11.958Z,38.70
2018-08-13T15:21:42.543Z,38.91
2018-08-13T15:24:14.022Z,38.28
2018-08-13T15:26:45.542Z,38.60
2018-08-13T15:29:16.913Z,38.33
2018-08-13T15:31:48.414Z,38.21
2018-08-13T15:34:19.843Z,38.59
2018-08-13T15:36:51.195Z,38.88
2018-08-13T15:39:22.687Z,38.85
2018-08-13T15:41:54.335Z,38.75
2018-08-13T15:44:25.810Z,39.13
2018-08-13T15:46:57.251Z,38.99
2018-08-13T15:49:28.917Z,38.89
2018-08-13T15:51:59.828Z,39.15
2018-08-13T15:54:31.293Z,39.54
2018-08-13T15:57:02.767Z,39.03
2018-08-13T15:59:34.385Z,39.10
2018-08-13T16:02:05.865Z,39.51
2018-08-13T16:04:37.504Z,39.68
2018-08-13T16:07:12.449Z,39.19
2018-08-13T16:09:43.798Z,39.19
2018-08-13T16:12:15.315Z,39.31
2018-08-13T16:14:47.273Z,39.45
2018-08-13T16:17:20.675Z,39.28
2018-08-13T16:19:51.907Z,39.08
2018-08-13T16:22:23.320Z,39.11
2018-08-13T16:24:54.781Z,39.61
2018-08-13T16:27:26.319Z,39.31
2018-08-13T16:29:57.775Z,39.13
2018-08-13T16:32:29.221Z,39.15
2018-08-13T16:35:00.685Z,39.09
2018-08-13T16:37:32.233Z,39.36
2018-08-13T16:40:03.871Z,39.02
2018-08-13T16:42:35.687Z,39.03
2018-08-13T16:45:07.685Z,39.09
2018-08-13T16:47:39.196Z,39.44
2018-08-13T16:50:32.755Z,38.78
2018-08-13T16:53:04.637Z,39.13
2018-08-13T16:55:35.917Z,39.44
2018-08-13T16:58:06.579Z,38.95
2018-08-13T17:00:38.213Z,38.91
2018-08-13T17:03:09.630Z,39.07
2018-08-13T17:05:41.362Z,39.56
2018-08-13T17:08:12.971Z,39.15
2018-08-13T17:16:49.487Z,39.53
2018-08-13T17:19:20.626Z,39.13
2018-08-13T17:21:51.711Z,39.36
2018-08-13T17:24:22.712Z,39.27
2018-08-13T17:26:53.777Z,39.55
2018-08-13T17:29:24.834Z,39.16
2018-08-13T17:31:55.822Z,38.97
2018-08-13T17:34:26.591Z,39.11
2018-08-13T17:36:57.426Z,39.29
2018-08-13T17:39:28.701Z,38.96
2018-08-13T17:41:59.815Z,39.05
2018-08-13T17:45:56.735Z,39.29
2018-08-13T17:48:27.696Z,39.32
2018-08-13T17:51:06.654Z,39.11
2018-08-13T17:53:38.660Z,39.55
2018-08-13T17:56:09.672Z,39.49
2018-08-13T17:58:40.692Z,39.29
2018-08-13T18:01:11.776Z,39.39
2018-08-13T18:03:42.894Z,39.16
2018-08-13T18:06:13.823Z,38.90
2018-08-13T18:21:31.428Z,39.44
2018-08-13T18:24:02.696Z,38.94
2018-08-13T18:26:33.675Z,39.28
2018-08-13T18:29:04.719Z,39.21
2018-08-13T18:31:35.711Z,39.39
2018-08-13T18:34:07.303Z,39.24
2018-08-13T18:36:38.500Z,39.19
2018-08-13T18:39:10.840Z,38.86
2018-08-13T18:41:43.609Z,38.85
2018-08-13T18:44:14.672Z,39.31
2018-08-13T18:46:45.685Z,39.20
2018-08-13T18:49:17.328Z,38.84
2018-08-13T18:51:48.763Z,38.83
2018-08-13T18:54:20.197Z,39.27
2018-08-13T18:56:51.829Z,39.21
2018-08-13T18:59:23.216Z,39.45
2018-08-13T19:01:54.719Z,39.54
2018-08-13T19:04:26.236Z,39.20
2018-08-13T19:06:57.681Z,39.44
2018-08-13T19:09:29.195Z,39.46
2018-08-13T19:12:00.681Z,39.24
2018-08-13T19:14:32.211Z,39.28
2018-08-13T19:17:03.765Z,39.39
2018-08-13T19:19:35.319Z,39.42
2018-08-13T19:22:06.881Z,39.53
2018-08-13T19:24:38.429Z,39.49
2018-08-13T19:27:09.830Z,39.26
2018-08-13T19:29:42.372Z,39.64
2018-08-13T19:32:13.772Z,39.74
2018-08-13T19:34:45.310Z,39.47
2018-08-13T19:37:16.775Z,39.24
2018-08-13T19:39:48.449Z,39.58
2018-08-13T19:42:19.917Z,39.46
2018-08-13T19:44:50.580Z,39.77
2018-08-13T19:47:22.191Z,39.35
2018-08-13T19:49:56.210Z,39.46
2018-08-13T19:52:27.643Z,39.67
2018-08-13T19:54:58.914Z,39.71
2018-08-13T19:57:29.519Z,39.96
2018-08-13T20:00:00.886Z,39.98
2018-08-13T20:02:32.489Z,39.72
2018-08-13T20:05:03.982Z,40.00
2018-08-13T20:07:35.519Z,39.83
2018-08-13T20:10:10.223Z,40.12
2018-08-13T20:12:41.741Z,40.12
2018-08-13T20:15:13.493Z,40.02
2018-08-13T20:17:46.267Z,40.25
2018-08-13T20:20:28.700Z,39.90
2018-08-13T20:23:01.680Z,40.05
2018-08-13T20:25:33.217Z,39.76
2018-08-13T20:28:04.725Z,39.86
2018-08-13T20:30:36.206Z,40.04
2018-08-13T20:33:07.888Z,40.19
2018-08-13T20:35:39.416Z,40.38
2018-08-13T20:38:10.796Z,40.35
2018-08-13T20:40:42.397Z,40.19
2018-08-13T20:43:13.911Z,40.33
2018-08-13T20:45:45.570Z,40.40
2018-08-13T20:48:16.957Z,39.82
2018-08-13T20:50:47.616Z,40.12
2018-08-13T20:53:19.204Z,40.36
2018-08-13T20:55:50.719Z,40.13
2018-08-13T20:58:22.430Z,40.08
2018-08-13T21:00:53.719Z,40.10
2018-08-13T21:03:25.500Z,40.15
2018-08-13T21:05:56.906Z,40.31
2018-08-13T21:08:27.585Z,39.92
2018-08-13T21:10:58.893Z,39.93
2018-08-13T21:13:30.571Z,40.19
2018-08-13T21:16:02.065Z,40.51
2018-08-13T21:18:33.706Z,40.44
2018-08-13T21:21:05.309Z,40.31
2018-08-13T21:23:37.674Z,40.04
2018-08-13T21:26:09.179Z,39.96
2018-08-13T21:28:41.450Z,40.03
2018-08-13T21:31:12.897Z,40.01
2018-08-13T21:33:44.734Z,39.86
2018-08-13T21:36:16.385Z,40.17
2018-08-13T21:38:48.002Z,40.43
2018-08-13T21:41:19.603Z,39.87
2018-08-13T21:43:51.189Z,40.35
2018-08-13T21:46:22.686Z,40.35
2018-08-13T21:48:54.621Z,39.80
2018-08-13T21:51:26.214Z,40.30
2018-08-13T21:53:57.715Z,40.37
2018-08-13T21:56:29.307Z,40.18
2018-08-13T21:59:00.768Z,40.11
2018-08-13T22:01:37.210Z,40.18
2018-08-13T22:04:08.736Z,40.51
2018-08-13T22:06:40.188Z,40.15
2018-08-13T22:09:11.965Z,40.28
2018-08-13T22:11:42.565Z,40.00
2018-08-13T22:14:14.215Z,40.05
2018-08-13T22:16:45.589Z,40.49
2018-08-13T22:19:16.812Z,40.17
2018-08-13T22:21:48.403Z,39.99
2018-08-13T22:24:42.755Z,40.05
2018-08-13T22:27:14.496Z,40.19
2018-08-13T22:29:46.213Z,40.57
2018-08-13T22:32:20.522Z,40.10
2018-08-13T22:34:53.235Z,40.07
2018-08-13T22:37:24.780Z,40.47
2018-08-13T22:39:56.343Z,40.21
2018-08-13T22:42:27.772Z,40.55
2018-08-13T22:44:59.387Z,40.24
2018-08-13T22:47:30.742Z,40.15
2018-08-13T22:50:02.703Z,40.34
2018-08-13T22:52:34.395Z,40.22
2018-08-13T22:55:06.997Z,40.14
2018-08-13T22:57:38.612Z,40.06
2018-08-13T23:00:14.740Z,40.65
2018-08-13T23:02:47.214Z,40.33
2018-08-13T23:05:23.701Z,40.57
2018-08-13T23:07:55.190Z,40.37
2018-08-13T23:10:26.777Z,40.22
2018-08-13T23:12:58.835Z,40.49
2018-08-13T23:15:31.010Z,40.24
2018-08-13T23:18:02.695Z,40.51
2018-08-13T23:20:34.262Z,40.55
2018-08-13T23:23:05.766Z,40.24
2018-08-13T23:25:38.753Z,40.49
2018-08-13T23:28:13.463Z,40.50
2018-08-13T23:30:45.199Z,40.74
2018-08-13T23:33:18.977Z,40.55
2018-08-13T23:35:50.361Z,40.42
2018-08-13T23:38:21.865Z,40.55
2018-08-13T23:40:53.364Z,40.33
2018-08-13T23:43:24.772Z,40.73
2018-08-13T23:45:56.216Z,40.57
2018-08-13T23:48:27.703Z,40.82
2018-08-13T23:50:59.304Z,40.73
2018-08-13T23:53:30.768Z,40.61
2018-08-13T23:56:02.305Z,40.59
2018-08-13T23:58:33.765Z,40.93
